• Join FlightAware (Why Join?)
  • Login
  • US Flag 
06:53PM EST


 

Airport Tracker/Info


-or-


 

Live Flight TrackerFlight Track Log ✈ AAY863 ✈ 25-Feb-2014 ✈ KCID - KPIE

Flight Track Log - Related Links

Times and Time Zones

All times are in EST time to prevent confusion due to time zone crossing. See the AAY863 flight status page for this flight to view local times or setup timezone preferences in your user account.

Time Position Orientation Groundspeed Altitude Reporting Facility
EST Latitude Longitude Course Direction KTS MPH feet Rate Location/Type
08:40PM 41.8781 -91.7560 240° Southwest 168 193 2,500  Level FlightAware ADS-B
08:41PM 41.8691 -91.7766 240° Southwest 202 232 2,900 1,560 Climbing FlightAware ADS-B
08:41PM 41.8425 -91.7990 212° Southwest 273 314 3,800 2,640 Climbing FlightAware ADS-B
08:42PM 41.8171 -91.7923 169° South 283 326 5,100 3,600 Climbing FlightAware ADS-B
08:42PM 41.7934 -91.7768 154° Southeast 290 334 6,200 3,060 Climbing FlightAware ADS-B
08:42PM 41.7701 -91.7601 152° Southeast 302 348 7,100 3,000 Climbing FlightAware ADS-B
08:42PM 41.7481 -91.7448 153° Southeast 308 354 8,000 2,820 Climbing FlightAware ADS-B
08:43PM 41.6906 -91.7108 156° South 321 369 10,000 1,920 Climbing FlightAware ADS-B
08:44PM 41.6279 -91.6771 158° South 379 436 10,900 2,100 Climbing FlightAware ADS-B
08:45PM 41.5511 -91.6339 157° South 381 438 13,200 2,460 Climbing FlightAware ADS-B
08:46PM 41.3842 -91.5048 150° Southeast 426 490 17,100 2,040 Climbing FlightAware ADS-B
08:47PM 41.3520 -91.4682 150° Southeast  Level FlightAware Approximate
08:48PM 41.2700 -91.4108 150° Southeast 426 490 19,100  Level Chicago Center
08:49PM 41.1636 -91.3192 147° Southeast 448 516 21,600 1,620 Climbing Chicago Center
08:54PM 40.5247 -90.7962 147° Southeast 516 594 29,900 1,440 Climbing FlightAware ADS-B (KMDW)
08:55PM 40.4447 -90.7333 147° Southeast 514 592 30,800 600 Climbing Chicago Center
08:56PM 40.3233 -90.6344 148° Southeast 516 594 31,000 660 Climbing Chicago Center
09:01PM 40.8095 -91.0273 148° Southeast 517 595 35,300 720 Climbing FlightAware ADS-B
09:02PM 39.5514 -90.0247 148° Southeast 514 592 35,800 720 Climbing Kansas City Center
09:03PM 39.4292 -89.9292 149° Southeast 514 592 36,600 540 Climbing Kansas City Center
09:04PM 39.3064 -89.8344 149° Southeast 514 592 37,000 180 Climbing Kansas City Center
09:05PM 39.1847 -89.7403 149° Southeast 514 592 37,000  Level Kansas City Center
09:12PM 38.3854 -89.1536 149° Southeast 493 567 37,100  Climbing FlightAware ADS-B
09:12PM 38.3070 -89.1251 164° South 481 554 37,000 -120 Descending FlightAware ADS-B
09:13PM 38.2300 -89.1028 167° South 479 551 37,000 60 Level FlightAware ADS-B
09:13PM 38.1633 -89.0832 167° South 477 549 37,100 60 Climbing FlightAware ADS-B
09:14PM 38.1049 -89.0660 167° South 473 544 37,100 -120 Level FlightAware ADS-B
09:14PM 38.0173 -89.0405 167° South 471 542 37,000 -120 Descending FlightAware ADS-B
09:15PM 37.9342 -89.0163 167° South 468 539 37,000  Level FlightAware ADS-B
09:16PM 37.8595 -88.9946 167° South 468 539 37,000  Level FlightAware ADS-B
09:16PM 37.7873 -88.9737 167° South 471 542 37,000  Level FlightAware ADS-B
09:18PM 37.6319 -88.9264 167° South 470 541 37,000  Level Kansas City Center
09:19PM 37.5031 -88.8911 168° South 470 541 37,000  Level Kansas City Center
09:20PM 37.3494 -88.8478 167° South 471 542 37,000  Level Memphis Center
09:21PM 37.2211 -88.8122 168° South 472 543 37,000  Level Memphis Center
09:22PM 37.0919 -88.7739 167° South 472 543 37,100  Climbing Memphis Center
09:23PM 36.9619 -88.7378 167° South 472 543 37,000 -60 Descending Memphis Center
09:24PM 36.8306 -88.7006 167° South 476 548 37,000  Level Memphis Center
09:25PM 36.7003 -88.6636 167° South 476 548 37,000  Level Memphis Center
09:26PM 36.5431 -88.6200 167° South 476 548 37,000  Level Memphis Center
09:27PM 36.4133 -88.5825 167° South 476 548 37,000  Level Memphis Center
09:28PM 36.2831 -88.5467 167° South 476 548 37,000  Level Memphis Center
09:29PM 36.1550 -88.5106 167° South 475 547 37,000  Level Memphis Center
09:30PM 36.0267 -88.4758 168° South 473 544 37,000  Level Memphis Center
09:35PM 35.3813 -88.1895 168° South 512 589 37,000  Level FlightAware ADS-B (KMDQ)
09:37PM 35.1907 -88.0428 148° Southeast 516 594 37,000  Level FlightAware ADS-B (KMDQ)
09:37PM 35.1135 -87.9836 148° Southeast 516 594 37,000  Level FlightAware ADS-B (KMDQ)
09:38PM 35.0233 -87.9145 148° Southeast 517 595 37,000  Level FlightAware ADS-B (KMDQ)
09:39PM 34.9075 -87.8261 148° Southeast 518 596 37,000  Level FlightAware ADS-B (KMDQ)
09:40PM 34.8273 -87.7651 148° Southeast 519 597 37,000  Level FlightAware ADS-B (KMDQ)
09:40PM 34.7578 -87.7124 148° Southeast 520 598 37,000  Level FlightAware ADS-B (KMDQ)
09:41PM 34.6665 -87.6433 148° Southeast 523 602 37,000  Level FlightAware ADS-B (KMDQ)
09:42PM 34.6068 -87.5980 148° Southeast 524 603 37,000  Level FlightAware ADS-B (KMDQ)
09:42PM 34.4960 -87.5142 148° Southeast 525 604 37,000  Level FlightAware ADS-B (KMDQ)
09:43PM 34.4205 -87.4574 148° Southeast 524 603 37,000  Level FlightAware ADS-B (KMDQ)
09:44PM 34.3326 -87.3914 148° Southeast 524 603 37,000  Level FlightAware ADS-B (KMDQ)
09:44PM 34.2515 -87.3308 148° Southeast 523 602 37,000  Level FlightAware ADS-B (KMDQ)
09:45PM 34.1733 -87.2724 148° Southeast 523 602 37,000  Level FlightAware ADS-B (KMDQ)
09:46PM 34.0859 -87.2074 148° Southeast 523 602 37,000  Level FlightAware ADS-B (KMDQ)
09:46PM 34.0186 -87.1573 148° Southeast 524 603 37,000  Level FlightAware ADS-B (KMDQ)
09:47PM 33.8809 -87.0554 148° Southeast 527 606 37,000  Level FlightAware ADS-B (KMDQ)
09:48PM 33.8039 -86.9983 148° Southeast 528 608 37,000  Level FlightAware ADS-B (KMDQ)
09:49PM 33.7221 -86.9381 148° Southeast 528 608 37,000  Level FlightAware ADS-B (KMDQ)
09:50PM 33.6017 -86.8447 148° Southeast 523 602 37,000  Level Atlanta Center
09:51PM 33.4786 -86.7386 144° Southeast 536 617 37,000  Level Atlanta Center
09:52PM 33.3578 -86.6353 144° Southeast 536 617 37,100  Climbing Atlanta Center
09:53PM 33.2422 -86.5747 156° South 509 586 37,000 -60 Descending Atlanta Center
09:54PM 33.1319 -86.4450 135° Southeast 534 615 37,000  Level Atlanta Center
09:55PM 33.0108 -86.3450 145° Southeast 534 615 37,000  Level Atlanta Center
09:56PM 32.8894 -86.2431 145° Southeast 534 615 37,000  Level Atlanta Center
09:57PM 32.7661 -86.1411 145° Southeast 529 609 37,000  Level Atlanta Center
09:58PM 32.6447 -86.0419 145° Southeast 529 609 37,000  Level Atlanta Center
09:59PM 32.5208 -85.9406 145° Southeast 529 609 37,000  Level Atlanta Center
10:00PM 32.3950 -85.8444 147° Southeast 534 615 37,100  Climbing Atlanta Center
10:01PM 32.2653 -85.7314 144° Southeast 534 615 37,000 -60 Descending Atlanta Center
10:02PM 32.0714 -85.5772 146° Southeast 524 603 37,000  Level Jacksonville Center
10:03PM 31.9461 -85.4756 145° Southeast 537 618 37,000  Level Jacksonville Center
10:04PM 31.8228 -85.3792 146° Southeast 537 618 37,000  Level Jacksonville Center
10:05PM 31.6994 -85.2781 145° Southeast 543 625 37,000  Level Jacksonville Center
10:06PM 31.5781 -85.1825 146° Southeast 543 625 37,000  Level Jacksonville Center
10:07PM 31.4400 -85.0817 148° Southeast 536 617 37,000  Level Jacksonville Center
10:08PM 31.3142 -84.9911 148° Southeast 536 617 37,000  Level Jacksonville Center
10:14PM 30.5805 -84.4731 148° Southeast 538 619 37,000  Level FlightAware ADS-B (KTLH)
10:15PM 30.4741 -84.3989 149° Southeast 538 619 37,000  Level FlightAware ADS-B (KTLH)
10:15PM 30.3941 -84.3432 149° Southeast 538 619 37,000  Level FlightAware ADS-B (KTLH)
10:16PM 30.2845 -84.2674 149° Southeast 537 618 37,000  Level FlightAware ADS-B (KTLH)
10:17PM 30.2231 -84.2249 149° Southeast 538 619 37,000  Level FlightAware ADS-B (KTLH)
10:17PM 30.1564 -84.1788 149° Southeast 538 619 37,000 -300 Level FlightAware ADS-B (KTLH)
10:18PM 30.0884 -84.1318 149° Southeast 535 616 36,700 -720 Descending FlightAware ADS-B (KTLH)
10:18PM 30.0259 -84.0888 149° Southeast 530 610 36,300 -900 Descending FlightAware ADS-B (KTLH)
10:19PM 29.9419 -84.0309 149° Southeast 529 609 35,700 -900 Descending FlightAware ADS-B (KTLH)
10:20PM 29.8008 -83.9361 149° Southeast 532 612 34,600 -900 Descending Jacksonville Center
10:21PM 29.6825 -83.8561 150° Southeast 521 600 33,700 -1,500 Descending Jacksonville Center
10:22PM 29.5600 -83.7711 149° Southeast 516 594 31,700 -1,980 Descending Jacksonville Center
10:23PM 29.4456 -83.6914 149° Southeast 497 572 29,800 -1,860 Descending Jacksonville Center
10:24PM 29.3333 -83.6167 150° Southeast 486 559 28,000 -2,040 Descending Jacksonville Center
10:25PM 29.2086 -83.5325 149° Southeast 472 543 25,800 -2,100 Descending Jacksonville Center
10:26PM 29.0983 -83.4581 149° Southeast 466 536 23,800 -1,980 Descending Jacksonville Center
10:27PM 28.9964 -83.3864 148° Southeast 455 524 21,900 -1,860 Descending Jacksonville Center
10:28PM 28.8964 -83.3219 151° Southeast 433 498 20,100 -1,740 Descending Jacksonville Center
10:29PM 28.8025 -83.2597 150° Southeast 416 479 18,400 -1,620 Descending Jacksonville Center
10:30PM 28.7131 -83.1981 149° Southeast 390 449 16,900 -1,440 Descending Jacksonville Center
10:31PM 28.6256 -83.1408 150° Southeast 377 434 15,600 -1,260 Descending Jacksonville Center
10:32PM 28.5333 -83.0833 151° Southeast 352 405 14,300 -1,200 Descending Tampa TRACON
10:33PM 28.4667 -83.0333 147° Southeast 347 399 13,300 -900 Descending Tampa TRACON
10:35PM 28.3500 -82.9667 153° Southeast 335 386 12,400 -1,200 Descending Tampa TRACON
10:36PM 28.2667 -82.9167 152° Southeast 310 357 10,600 -1,920 Descending Tampa TRACON
10:37PM 28.2000 -82.8667 147° Southeast 303 349 8,600 -2,220 Descending Tampa TRACON
10:38PM 28.1333 -82.8333 156° South 284 327 6,200 -2,400 Descending Tampa TRACON
10:38PM 28.0667 -82.8000 156° South 282 325 4,100 -1,620 Descending Tampa TRACON
10:39PM 28.0000 -82.7667 156° South 247 284 3,200 -840 Descending Tampa TRACON
10:40PM 27.9500 -82.7500 164° South 214 246 2,600 -660 Descending Tampa TRACON
10:41PM 27.8833 -82.7500 180° South 180 207 2,000 -540 Descending Tampa TRACON
10:42PM 27.8333 -82.7333 164° South 181 208 1,600 -240 Descending Tampa TRACON
10:43PM 27.8167 -82.7000 119° Southeast 158 182 1,600 -300 Level Tampa TRACON
10:44PM 27.8500 -82.6833 24° Northeast 146 168 1,100 -600 Descending Tampa TRACON
10:45PM 27.8833 -82.6833 360° North 132 152 400 -720 Descending Tampa TRACON